createdAt,value
2022-10-11T00:00:07.579Z,0.38
2022-10-11T00:03:10.842Z,0.48
2022-10-11T00:06:14.974Z,0.76
2022-10-11T00:09:18.617Z,0.98
2022-10-11T00:12:22.322Z,1.26
2022-10-11T00:15:26.628Z,1.79
2022-10-11T00:18:29.610Z,2.38
2022-10-11T00:21:33.521Z,3.07
2022-10-11T00:24:36.541Z,3.75
2022-10-11T00:27:41.050Z,4.11
2022-10-11T00:30:44.789Z,4.53
2022-10-11T00:33:49.134Z,4.93
2022-10-11T00:36:52.333Z,5.49
2022-10-11T00:39:55.482Z,5.51
2022-10-11T00:42:59.250Z,5.64
2022-10-11T00:46:14.557Z,5.64
2022-10-11T00:49:24.153Z,5.94
2022-10-11T00:52:39.376Z,5.85
2022-10-11T00:56:06.447Z,6.06
2022-10-11T00:59:15.625Z,6.30
2022-10-11T01:02:20.247Z,6.35
2022-10-11T01:05:31.693Z,6.49
2022-10-11T01:08:35.111Z,7.05
2022-10-11T01:11:42.422Z,7.67
2022-10-11T01:15:03.627Z,7.73
2022-10-11T01:18:10.241Z,7.59
2022-10-11T01:21:23.947Z,7.44
2022-10-11T01:24:54.328Z,7.61
2022-10-11T01:28:09.960Z,8.13
2022-10-11T01:31:22.085Z,8.10
2022-10-11T01:35:00.732Z,8.08
2022-10-11T01:38:14.067Z,7.86
2022-10-11T01:41:28.329Z,7.68
2022-10-11T01:44:35.163Z,7.81
2022-10-11T01:47:39.591Z,8.22
2022-10-11T01:50:47.963Z,8.30
2022-10-11T01:54:03.625Z,8.60
2022-10-11T01:57:23.818Z,9.12
2022-10-11T02:00:33.672Z,9.21
2022-10-11T02:03:51.903Z,9.11
2022-10-11T02:07:12.334Z,9.56
2022-10-11T02:10:45.703Z,9.63
2022-10-11T02:13:59.424Z,10.28
2022-10-11T02:17:09.061Z,10.44
2022-10-11T02:20:18.643Z,10.57
2022-10-11T02:23:27.615Z,10.31
2022-10-11T02:26:33.805Z,10.53
2022-10-11T02:29:40.694Z,10.75
2022-10-11T02:32:47.334Z,10.80
2022-10-11T02:36:06.971Z,11.04
2022-10-11T02:39:43.114Z,11.50
2022-10-11T02:43:00.213Z,11.42
2022-10-11T02:46:04.839Z,11.12
2022-10-11T02:49:09.217Z,11.38
2022-10-11T02:52:12.086Z,11.37
2022-10-11T02:55:15.990Z,11.26
2022-10-11T02:58:20.518Z,11.47
2022-10-11T03:01:23.853Z,11.22
2022-10-11T03:04:27.560Z,10.85
2022-10-11T03:07:31.509Z,10.69
2022-10-11T03:10:35.933Z,10.81
2022-10-11T03:13:39.928Z,11.15
2022-10-11T03:16:43.460Z,11.07
2022-10-11T03:19:46.701Z,10.83
2022-10-11T03:22:50.393Z,10.97
2022-10-11T03:25:54.343Z,10.86
2022-10-11T03:28:57.972Z,10.58
2022-10-11T03:32:01.279Z,10.49
2022-10-11T03:35:04.869Z,10.59
2022-10-11T03:38:12.244Z,10.66
2022-10-11T03:41:16.225Z,10.72
2022-10-11T03:44:19.128Z,10.81
2022-10-11T03:47:23.065Z,10.89
2022-10-11T03:50:26.883Z,11.11
2022-10-11T03:53:30.407Z,11.27
2022-10-11T03:56:33.964Z,11.31
2022-10-11T03:59:37.526Z,11.38
2022-10-11T04:02:40.706Z,11.22
2022-10-11T04:05:44.186Z,11.03
2022-10-11T04:08:47.750Z,10.87
2022-10-11T04:11:51.654Z,11.02
2022-10-11T04:14:54.643Z,11.13
2022-10-11T04:17:57.857Z,11.29
2022-10-11T04:21:00.767Z,11.06
2022-10-11T04:24:04.195Z,10.90
2022-10-11T04:27:07.053Z,11.01
2022-10-11T04:30:11.134Z,11.14
2022-10-11T04:33:15.107Z,11.23
2022-10-11T04:36:19.062Z,11.27
2022-10-11T04:39:22.574Z,11.44
2022-10-11T04:42:26.272Z,11.52
2022-10-11T04:45:29.133Z,11.51
2022-10-11T04:48:32.961Z,11.52
2022-10-11T04:51:36.536Z,11.72
2022-10-11T04:54:40.507Z,11.88
2022-10-11T04:57:43.948Z,11.95
2022-10-11T05:00:48.008Z,11.90
2022-10-11T05:03:52.083Z,11.89
2022-10-11T05:06:56.568Z,11.97
2022-10-11T05:10:00.504Z,12.03
2022-10-11T05:13:03.831Z,12.04
2022-10-11T05:16:10.773Z,12.11
2022-10-11T05:19:14.662Z,12.24
2022-10-11T05:22:17.525Z,12.41
2022-10-11T05:25:21.381Z,12.55
2022-10-11T05:28:25.019Z,12.62
2022-10-11T05:31:28.031Z,12.74
2022-10-11T05:34:31.599Z,12.70
2022-10-11T05:37:35.190Z,12.73
2022-10-11T05:40:40.446Z,12.78
2022-10-11T05:43:45.210Z,12.88
2022-10-11T05:46:48.502Z,12.95
2022-10-11T05:49:52.090Z,13.02
2022-10-11T05:52:56.970Z,13.05
2022-10-11T05:56:01.025Z,13.07
2022-10-11T05:59:06.437Z,13.09
2022-10-11T06:02:13.403Z,13.10
2022-10-11T06:05:17.001Z,13.05
2022-10-11T06:08:20.594Z,13.12
2022-10-11T06:11:28.197Z,13.27
2022-10-11T06:14:32.083Z,13.32
2022-10-11T06:17:35.617Z,13.42
2022-10-11T06:20:38.499Z,13.50
2022-10-11T06:23:41.841Z,13.45
2022-10-11T06:26:44.726Z,13.37
2022-10-11T06:29:48.678Z,13.26
2022-10-11T06:32:52.248Z,13.16
2022-10-11T06:36:01.775Z,13.24
2022-10-11T06:39:05.514Z,13.28
2022-10-11T06:42:08.813Z,13.40
2022-10-11T06:45:12.299Z,13.50
2022-10-11T06:48:16.132Z,13.60
2022-10-11T06:51:21.409Z,13.71
2022-10-11T06:54:25.203Z,13.67
2022-10-11T06:57:29.766Z,13.63
2022-10-11T07:00:33.055Z,13.59
2022-10-11T07:03:37.219Z,13.53
2022-10-11T07:06:42.157Z,13.56
2022-10-11T07:09:45.740Z,13.61
2022-10-11T07:12:49.655Z,13.66
2022-10-11T07:15:53.158Z,13.69
2022-10-11T07:19:01.240Z,13.79
2022-10-11T07:22:05.208Z,13.83
2022-10-11T07:25:08.844Z,13.84
2022-10-11T07:28:13.256Z,13.80
2022-10-11T07:31:20.428Z,13.82
2022-10-11T07:34:23.566Z,13.86
2022-10-11T07:37:27.561Z,13.87
2022-10-11T07:40:30.580Z,13.90
2022-10-11T07:43:35.079Z,13.87
2022-10-11T07:46:38.651Z,13.83
2022-10-11T07:49:41.555Z,13.80
2022-10-11T07:52:45.127Z,13.80
2022-10-11T07:55:48.756Z,13.80
2022-10-11T07:58:55.120Z,13.80
2022-10-11T08:01:58.679Z,13.75
2022-10-11T08:05:01.685Z,13.76
2022-10-11T08:08:05.596Z,13.84
2022-10-11T08:11:09.273Z,13.87
2022-10-11T08:14:12.359Z,13.93
2022-10-11T08:17:16.417Z,13.78
2022-10-11T08:20:19.435Z,13.74
2022-10-11T08:23:23.564Z,13.81
2022-10-11T08:26:26.500Z,13.68
2022-10-11T08:29:30.281Z,13.55
2022-10-11T08:32:33.695Z,13.48
2022-10-11T08:35:37.766Z,13.43
2022-10-11T08:38:42.154Z,13.34
2022-10-11T08:41:56.428Z,13.24
2022-10-11T08:45:12.289Z,13.16
2022-10-11T08:48:21.444Z,13.08
2022-10-11T08:52:02.943Z,13.19
2022-10-11T08:55:18.383Z,13.15
2022-10-11T08:58:38.074Z,13.07
2022-10-11T09:01:50.214Z,13.05
2022-10-11T09:04:56.294Z,13.00
2022-10-11T09:08:19.967Z,12.91
2022-10-11T09:11:53.242Z,12.78
2022-10-11T09:15:18.276Z,12.64
2022-10-11T09:18:49.183Z,12.49
2022-10-11T09:22:17.709Z,12.25
2022-10-11T09:25:42.156Z,11.98
2022-10-11T09:29:11.304Z,11.68
2022-10-11T09:32:18.266Z,11.47
2022-10-11T09:35:23.877Z,11.32
2022-10-11T09:38:44.058Z,11.15
2022-10-11T09:41:52.964Z,10.87
2022-10-11T09:45:00.606Z,10.65
2022-10-11T09:48:07.552Z,10.51
2022-10-11T09:51:20.869Z,10.37
2022-10-11T09:54:48.989Z,10.26
2022-10-11T09:57:55.789Z,10.13
2022-10-11T10:01:08.220Z,10.00
2022-10-11T10:04:19.664Z,9.83
2022-10-11T10:07:23.823Z,9.62
2022-10-11T10:10:32.859Z,9.49
2022-10-11T10:13:50.641Z,9.37
2022-10-11T10:17:18.019Z,9.21
2022-10-11T10:20:28.532Z,9.03
2022-10-11T10:23:35.451Z,8.93
2022-10-11T10:26:40.468Z,8.83
2022-10-11T10:30:01.236Z,8.72
2022-10-11T10:33:07.844Z,8.62
2022-10-11T10:36:20.305Z,8.53
2022-10-11T10:39:34.615Z,8.48
2022-10-11T10:42:38.910Z,8.37
2022-10-11T10:46:10.587Z,8.18
2022-10-11T10:53:05.509Z,7.99
2022-10-11T10:56:15.553Z,7.89
2022-10-11T10:59:36.726Z,7.76
2022-10-11T11:02:58.219Z,7.69
2022-10-11T11:06:06.988Z,7.66
2022-10-11T11:09:23.824Z,7.62
2022-10-11T11:12:44.836Z,7.67
2022-10-11T11:16:03.817Z,7.73
2022-10-11T11:19:29.792Z,7.86
2022-10-11T11:22:39.394Z,7.96
2022-10-11T11:26:01.761Z,7.97
2022-10-11T11:29:24.658Z,7.96
2022-10-11T11:32:33.340Z,7.92
2022-10-11T11:35:53.692Z,7.88
2022-10-11T11:39:03.609Z,7.85
2022-10-11T11:42:42.510Z,7.77
2022-10-11T11:45:51.558Z,7.87
2022-10-11T11:48:56.665Z,7.94
2022-10-11T11:52:00.561Z,7.96
2022-10-11T11:55:53.859Z,8.01
2022-10-11T11:59:07.373Z,7.99
2022-10-11T12:02:23.389Z,7.98
2022-10-11T12:05:30.925Z,7.93
2022-10-11T12:08:36.519Z,7.79
2022-10-11T12:11:56.284Z,7.76
2022-10-11T12:15:26.679Z,7.72
2022-10-11T12:18:31.419Z,7.67
2022-10-11T12:21:39.714Z,7.72
2022-10-11T12:24:56.313Z,7.77
2022-10-11T12:28:01.277Z,7.77
2022-10-11T12:31:06.653Z,7.74
2022-10-11T12:34:10.359Z,7.73
2022-10-11T12:37:54.310Z,7.63
2022-10-11T12:41:18.737Z,7.52
2022-10-11T12:44:29.340Z,7.42
2022-10-11T12:47:47.429Z,7.30
2022-10-11T12:51:05.786Z,7.30
2022-10-11T12:54:37.399Z,7.31
2022-10-11T12:58:04.762Z,7.41
2022-10-11T13:01:11.526Z,7.53
2022-10-11T13:04:19.692Z,7.61
2022-10-11T13:07:24.485Z,7.65
2022-10-11T13:10:48.017Z,7.70
2022-10-11T13:14:14.370Z,7.70
2022-10-11T13:17:27.254Z,7.65
2022-10-11T13:20:37.507Z,7.53
2022-10-11T13:23:43.309Z,7.43
2022-10-11T13:26:49.488Z,7.41
2022-10-11T13:29:55.548Z,7.40
2022-10-11T13:33:00.691Z,7.42
2022-10-11T13:36:06.969Z,7.44
2022-10-11T13:39:31.333Z,7.45
2022-10-11T13:42:35.706Z,7.47
2022-10-11T13:45:42.393Z,7.47
2022-10-11T13:48:46.300Z,7.46
2022-10-11T13:52:22.160Z,7.50
2022-10-11T13:55:34.526Z,7.50
2022-10-11T13:58:47.218Z,7.52
2022-10-11T14:01:55.228Z,7.53
2022-10-11T14:04:59.365Z,7.56
2022-10-11T14:08:06.588Z,7.61
2022-10-11T14:11:11.351Z,7.65
2022-10-11T14:14:33.639Z,7.69
2022-10-11T14:17:43.591Z,7.72
2022-10-11T14:20:47.270Z,7.72
2022-10-11T14:23:59.450Z,7.76
2022-10-11T14:27:06.522Z,7.78
2022-10-11T14:30:25.430Z,7.81
2022-10-11T14:33:30.040Z,7.78
2022-10-11T14:36:33.704Z,7.78
2022-10-11T14:39:37.412Z,7.77
2022-10-11T14:42:42.777Z,7.72
2022-10-11T14:45:46.399Z,7.70
2022-10-11T14:48:55.660Z,7.70
2022-10-11T14:52:00.702Z,7.70
2022-10-11T14:55:04.476Z,7.69
2022-10-11T14:58:09.700Z,7.67
2022-10-11T15:01:18.002Z,7.71
2022-10-11T15:04:26.707Z,7.70
2022-10-11T15:07:31.443Z,7.71
2022-10-11T15:10:40.669Z,7.71
2022-10-11T15:13:44.682Z,7.66
2022-10-11T15:16:48.441Z,7.66
2022-10-11T15:19:52.069Z,7.65
2022-10-11T15:22:57.323Z,7.61
2022-10-11T15:26:00.920Z,7.56
2022-10-11T15:29:05.445Z,7.57
2022-10-11T15:32:08.326Z,7.48
2022-10-11T15:35:12.930Z,7.52
2022-10-11T15:38:19.187Z,7.55
2022-10-11T15:41:24.798Z,7.57
2022-10-11T15:44:28.487Z,7.56
2022-10-11T15:47:32.337Z,7.55
2022-10-11T15:50:37.979Z,7.48
2022-10-11T15:53:41.547Z,7.41
2022-10-11T15:56:45.272Z,7.39
2022-10-11T15:59:49.162Z,7.35
2022-10-11T16:02:58.980Z,7.35
2022-10-11T16:06:05.529Z,7.36
2022-10-11T16:09:09.330Z,7.32
2022-10-11T16:12:13.014Z,7.33
2022-10-11T16:15:16.916Z,7.25
2022-10-11T16:18:21.925Z,7.22
2022-10-11T16:21:25.661Z,7.24
2022-10-11T16:24:29.725Z,7.27
2022-10-11T16:27:34.551Z,7.30
2022-10-11T16:30:44.737Z,7.33
2022-10-11T16:33:50.720Z,7.38
2022-10-11T16:36:54.665Z,7.45
2022-10-11T16:39:58.282Z,7.54
2022-10-11T16:43:07.986Z,7.58
2022-10-11T16:46:11.657Z,7.60
2022-10-11T16:49:25.659Z,7.65
2022-10-11T16:52:29.646Z,7.66
2022-10-11T16:55:33.429Z,7.69
2022-10-11T16:58:37.281Z,7.69
2022-10-11T17:01:40.929Z,7.72
2022-10-11T17:04:44.087Z,7.76
2022-10-11T17:07:48.110Z,7.77
2022-10-11T17:10:57.706Z,7.78
2022-10-11T17:14:02.593Z,7.77
2022-10-11T17:17:09.189Z,7.78
2022-10-11T17:20:13.204Z,7.84
2022-10-11T17:23:16.922Z,7.88
2022-10-11T17:26:25.776Z,7.85
2022-10-11T17:29:29.377Z,7.82
2022-10-11T17:32:33.330Z,7.76
2022-10-11T17:35:37.076Z,7.76
2022-10-11T17:38:40.946Z,7.73
2022-10-11T17:41:45.398Z,7.69
2022-10-11T17:44:49.261Z,7.63
2022-10-11T17:47:52.882Z,7.59
2022-10-11T17:50:56.963Z,7.50
2022-10-11T17:54:00.712Z,7.44
2022-10-11T17:57:04.666Z,7.38
2022-10-11T18:00:09.106Z,7.32
2022-10-11T18:03:13.086Z,7.17
2022-10-11T18:06:16.668Z,7.12
2022-10-11T18:09:21.750Z,7.08
2022-10-11T18:12:26.541Z,7.05
2022-10-11T18:15:33.894Z,7.03
2022-10-11T18:18:37.544Z,7.00
2022-10-11T18:21:41.040Z,6.95
2022-10-11T18:24:44.683Z,6.94
2022-10-11T18:27:48.585Z,6.88
2022-10-11T18:30:53.665Z,6.81
2022-10-11T18:33:57.667Z,6.79
2022-10-11T18:37:01.289Z,6.75
2022-10-11T18:40:05.790Z,6.72
2022-10-11T18:43:09.053Z,6.60
2022-10-11T18:46:15.413Z,6.52
2022-10-11T18:49:18.893Z,6.50
2022-10-11T18:52:22.491Z,6.47
2022-10-11T18:55:25.720Z,6.42
2022-10-11T18:58:33.476Z,6.38
2022-10-11T19:01:40.615Z,6.36
2022-10-11T19:04:44.649Z,6.34
2022-10-11T19:07:47.575Z,6.35
2022-10-11T19:10:50.826Z,6.39
2022-10-11T19:13:59.631Z,6.42
2022-10-11T19:17:03.488Z,6.38
2022-10-11T19:20:07.431Z,6.32
2022-10-11T19:23:11.309Z,6.25
2022-10-11T19:26:20.714Z,6.27
2022-10-11T19:29:26.667Z,6.33
2022-10-11T19:32:30.374Z,6.31
2022-10-11T19:35:34.473Z,6.23
2022-10-11T19:38:38.053Z,6.14
2022-10-11T19:41:42.730Z,6.05
2022-10-11T19:44:46.226Z,5.96
2022-10-11T19:47:50.422Z,5.87
2022-10-11T19:51:01.420Z,5.80
2022-10-11T19:54:08.300Z,5.76
2022-10-11T19:57:11.975Z,5.70
2022-10-11T20:00:16.310Z,5.68
2022-10-11T20:03:19.846Z,5.66
2022-10-11T20:06:25.018Z,5.69
2022-10-11T20:09:30.363Z,5.65
2022-10-11T20:12:35.479Z,5.58
2022-10-11T20:15:39.539Z,5.53
2022-10-11T20:18:43.876Z,5.50
2022-10-11T20:21:48.237Z,5.49
2022-10-11T20:24:52.270Z,5.45
2022-10-11T20:27:55.779Z,5.37
2022-10-11T20:31:01.224Z,5.32
2022-10-11T20:34:07.677Z,5.23
2022-10-11T20:37:11.741Z,5.11
2022-10-11T20:40:15.370Z,5.05
2022-10-11T20:43:19.136Z,4.97
2022-10-11T20:46:25.949Z,4.93
2022-10-11T20:49:29.603Z,4.89
2022-10-11T20:52:33.530Z,4.84
2022-10-11T20:55:37.583Z,4.73
2022-10-11T20:58:42.960Z,4.64
2022-10-11T21:01:46.874Z,4.55
2022-10-11T21:04:51.879Z,4.52
2022-10-11T21:07:55.757Z,4.49
2022-10-11T21:10:59.526Z,4.49
2022-10-11T21:14:06.462Z,4.47
2022-10-11T21:17:10.020Z,4.41
2022-10-11T21:20:13.760Z,4.34
2022-10-11T21:23:19.407Z,4.26
2022-10-11T21:26:23.392Z,4.24
2022-10-11T21:29:27.005Z,4.21
2022-10-11T21:32:30.946Z,4.21
2022-10-11T21:35:34.529Z,4.15
2022-10-11T21:38:38.698Z,4.11
2022-10-11T21:41:43.189Z,4.06
2022-10-11T21:44:46.379Z,4.01
2022-10-11T21:47:50.075Z,3.98
2022-10-11T21:50:55.485Z,4.01
2022-10-11T21:54:00.897Z,4.02
2022-10-11T21:57:04.620Z,4.02
2022-10-11T22:00:08.924Z,3.99
2022-10-11T22:03:16.344Z,3.98
2022-10-11T22:06:20.095Z,3.96
2022-10-11T22:09:24.145Z,3.90
2022-10-11T22:12:27.812Z,3.89
2022-10-11T22:15:35.535Z,3.86
2022-10-11T22:18:39.825Z,3.82
2022-10-11T22:21:45.171Z,3.76
2022-10-11T22:24:49.127Z,3.73
2022-10-11T22:27:53.229Z,3.73
2022-10-11T22:30:56.361Z,3.70
2022-10-11T22:34:01.413Z,3.71
2022-10-11T22:37:05.097Z,3.73
2022-10-11T22:40:09.585Z,3.76
2022-10-11T22:43:13.194Z,3.78
2022-10-11T22:46:16.827Z,3.80
2022-10-11T22:49:20.367Z,3.83
2022-10-11T22:52:24.310Z,3.88
2022-10-11T22:55:27.459Z,3.86
2022-10-11T22:58:31.630Z,3.84
2022-10-11T23:01:35.106Z,3.88
2022-10-11T23:04:39.253Z,3.91
2022-10-11T23:07:42.865Z,3.92
2022-10-11T23:10:46.484Z,3.93
2022-10-11T23:13:49.645Z,3.96
2022-10-11T23:16:54.028Z,3.99
2022-10-11T23:19:57.622Z,4.03
2022-10-11T23:23:01.556Z,4.08
2022-10-11T23:26:07.334Z,4.16
2022-10-11T23:29:11.243Z,4.22
2022-10-11T23:32:14.790Z,4.28
2022-10-11T23:35:19.040Z,4.35
2022-10-11T23:38:22.656Z,4.40
2022-10-11T23:41:28.998Z,4.45
2022-10-11T23:44:32.522Z,4.49
2022-10-11T23:47:36.615Z,4.55
2022-10-11T23:50:40.587Z,4.58
2022-10-11T23:53:44.612Z,4.62
2022-10-11T23:56:48.184Z,4.66
2022-10-11T23:59:52.133Z,4.72
